Roy Baker — WDC2698 — position and weather

sailwx.info

Track history (hours):
 
Tides and Currents Weather Stations Pressure Air Temp Water Temp Dewpoint Dewpoint Depression Visibility Wind Speed Wind Dir Waves Ship Positions

Roy Baker

Owner: Kirby Inland Marine LP, Houston, TX. More information available from US FCC via Universal Licensing System and Coast Guard Vessel Documentation Center.

Last reported at 2018-Apr-23 19:15 UTC. Time now 2018-Apr-24 08:44 UTC.
Position N 29°56' W 093°09'.

Length 11 m; draft 2.1 m.

Type: Towing. MMSI: 366996540.

Date/timePositionNaut miles runAvg speedWind from/ knotsBaromVisibWave heightAir tempDewpointWater temp
2018-Apr-23 19:15N 29°56' W 093°09'1 5.9
2018-Apr-23 19:00N 29°57' W 093°10'2 3.4
2018-Apr-23 18:30N 29°58' W 093°12'3 6.2
2018-Apr-23 18:00N 30°01' W 093°14'3 5.6
2018-Apr-23 17:30N 30°03' W 093°16'3 5.2
2018-Apr-23 16:58N 30°05' W 093°18'1 1.8
2018-Apr-23 16:30N 30°06' W 093°18'0 0.0
2018-Apr-23 16:01N 30°06' W 093°18'3 5.5
2018-Apr-23 15:30N 30°04' W 093°21'3 5.5
2018-Apr-23 15:01N 30°04' W 093°24'4 7.3
2018-Apr-23 14:30N 30°04' W 093°28'4 7.4
2018-Apr-23 13:59N 30°04' W 093°32'4 7.3
2018-Apr-23 13:30N 30°04' W 093°37'3 6.9
2018-Apr-23 13:00N 30°04' W 093°40'3 6.2
2018-Apr-23 12:30N 30°03' W 093°44'3 5.1
2018-Apr-23 12:00N 30°01' W 093°46'3 6.0
2018-Apr-23 11:30N 29°59' W 093°49'3 6.1
2018-Apr-23 11:00N 29°57' W 093°51'0 0.8
2018-Apr-23 10:30N 29°58' W 093°52'0 0.0
2018-Apr-23 10:00N 29°58' W 093°52'0 0.0
2018-Apr-23 09:30N 29°58' W 093°52'0 0.0
2018-Apr-23 09:00N 29°58' W 093°52'0 0.0
2018-Apr-23 08:30N 29°58' W 093°52'0 0.0
2018-Apr-23 08:00N 29°58' W 093°52'0 0.0
2018-Apr-23 07:30N 29°58' W 093°52'0 0.0
2018-Apr-23 07:00N 29°58' W 093°52'0 0.0
2018-Apr-23 06:30N 29°58' W 093°52'0 0.0
2018-Apr-23 06:00N 29°58' W 093°52'0 0.0
2018-Apr-23 05:30N 29°58' W 093°52'0 0.0
2018-Apr-23 05:00N 29°58' W 093°52'0 0.0
2018-Apr-23 04:30N 29°58' W 093°52'0 0.0
2018-Apr-23 04:00N 29°58' W 093°52'0 0.0
2018-Apr-23 03:31N 29°58' W 093°52'0 0.0
2018-Apr-23 03:00N 29°58' W 093°52'0 0.0
2018-Apr-23 02:30N 29°58' W 093°52'0 0.0
2018-Apr-23 02:00N 29°58' W 093°52'0 0.0
2018-Apr-23 01:29N 29°58' W 093°52'0 0.0
2018-Apr-23 01:00N 29°58' W 093°52'0 0.0
2018-Apr-23 00:30N 29°58' W 093°52'0 0.0
2018-Apr-23 00:00N 29°58' W 093°52'0 0.0
2018-Apr-22 23:28N 29°58' W 093°52'0 0.0
2018-Apr-22 23:00N 29°58' W 093°52'0 0.0
2018-Apr-22 22:30N 29°58' W 093°52'0 0.0
2018-Apr-22 22:00N 29°58' W 093°52'0 0.0
2018-Apr-22 21:30N 29°58' W 093°52'0 0.0
2018-Apr-22 21:00N 29°58' W 093°52'0 0.0
2018-Apr-22 20:30N 29°58' W 093°52'0 0.0
2018-Apr-22 19:58N 29°58' W 093°52'0 0.0
2018-Apr-22 19:30N 29°58' W 093°52'0 0.2
2018-Apr-22 19:00N 29°58' W 093°52'0 0.1
2018-Apr-22 18:30N 29°58' W 093°52'0 0.0
2018-Apr-22 18:00N 29°58' W 093°52'0 0.0
2018-Apr-22 17:30N 29°58' W 093°52'0 0.0
2018-Apr-22 17:00N 29°58' W 093°52'0 0.0
2018-Apr-22 16:30N 29°58' W 093°52'0 0.0
2018-Apr-22 16:00N 29°58' W 093°52'0 0.0
2018-Apr-22 15:30N 29°58' W 093°52'0 0.2
2018-Apr-22 15:00N 29°58' W 093°52'0 0.0
2018-Apr-22 14:30N 29°58' W 093°52'0 0.0
2018-Apr-22 14:00N 29°58' W 093°52'0 0.0
2018-Apr-22 13:31N 29°58' W 093°52'0 0.0
2018-Apr-22 13:01N 29°58' W 093°52'0 0.1
2018-Apr-22 12:30N 29°58' W 093°52'0 0.0
2018-Apr-22 11:59N 29°58' W 093°52'0 0.0
2018-Apr-22 11:30N 29°58' W 093°52'0 0.0
2018-Apr-22 11:00N 29°58' W 093°52'0 0.0
2018-Apr-22 10:30N 29°58' W 093°52'0 0.0
2018-Apr-22 10:01N 29°58' W 093°52'0 0.0
2018-Apr-22 09:30N 29°58' W 093°52'0 0.0
2018-Apr-22 09:00N 29°58' W 093°52'0 0.0
2018-Apr-22 08:30N 29°58' W 093°52'0 0.0
2018-Apr-22 08:00N 29°58' W 093°52'0 0.0
2018-Apr-22 07:30N 29°58' W 093°52'0 0.0
2018-Apr-22 07:00N 29°58' W 093°52'0 0.0
2018-Apr-22 06:30N 29°58' W 093°52'0 0.1
2018-Apr-22 06:00N 29°58' W 093°52'0 0.0
2018-Apr-22 05:30N 29°58' W 093°52'0 0.0
2018-Apr-22 05:00N 29°58' W 093°52'0 0.0
2018-Apr-22 04:30N 29°58' W 093°52'0 0.0
2018-Apr-22 04:00N 29°58' W 093°52'0 0.0
2018-Apr-22 03:30N 29°58' W 093°52'0 0.0
2018-Apr-22 03:00N 29°58' W 093°52'0 0.0
2018-Apr-22 02:30N 29°58' W 093°52'0 0.0
2018-Apr-22 02:00N 29°58' W 093°52'0 0.0
2018-Apr-22 01:30N 29°58' W 093°52'0 0.0
2018-Apr-22 01:00N 29°58' W 093°52'0 0.0
2018-Apr-22 00:30N 29°58' W 093°52'1 2.8
2018-Apr-22 00:00N 29°56' W 093°52'4 7.1
2018-Apr-21 23:30N 29°54' W 093°55'4 7.2
2018-Apr-21 23:00N 29°51' W 093°57'1 2.1
2018-Apr-21 22:30N 29°50' W 093°58'0 0.0
2018-Apr-21 22:00N 29°50' W 093°58'0 0.0
2018-Apr-21 21:30N 29°50' W 093°58'0 0.0
2018-Apr-21 21:00N 29°50' W 093°58'0 0.4
2018-Apr-21 20:31N 29°50' W 093°58'2 4.3
2018-Apr-21 20:00N 29°52' W 093°56'2 4.3
2018-Apr-21 19:30N 29°53' W 093°55'3 6.3
2018-Apr-21 19:00N 29°56' W 093°53'2 4.2
2018-Apr-21 18:30N 29°58' W 093°52'0 0.0
2018-Apr-21 18:00N 29°58' W 093°52'0 0.0
2018-Apr-21 17:30N 29°58' W 093°52'0 0.0
2018-Apr-21 17:00N 29°58' W 093°52'0 0.0
2018-Apr-21 16:30N 29°58' W 093°52'0 0.0
2018-Apr-21 16:00N 29°58' W 093°52'0 0.0
2018-Apr-21 15:30N 29°58' W 093°52'0 0.0
2018-Apr-21 15:00N 29°58' W 093°52'0 0.0
2018-Apr-21 14:30N 29°58' W 093°52'0 0.0
2018-Apr-21 14:00N 29°58' W 093°52'0 0.0
2018-Apr-21 13:30N 29°58' W 093°52'0 0.0
2018-Apr-21 13:00N 29°58' W 093°52'0 0.0
2018-Apr-21 12:29N 29°58' W 093°52'0 0.0
2018-Apr-21 12:00N 29°58' W 093°52'0 0.0
2018-Apr-21 11:30N 29°58' W 093°52'0 0.0
2018-Apr-21 11:00N 29°58' W 093°52'0 0.3
2018-Apr-21 10:30N 29°58' W 093°52'0 0.1
2018-Apr-21 10:00N 29°58' W 093°52'1 1.7
2018-Apr-21 09:30N 29°57' W 093°52'2 3.4
2018-Apr-21 09:00N 29°58' W 093°51'2 4.6
2018-Apr-21 08:31N 29°59' W 093°48'2 4.6
2018-Apr-21 08:00N 30°00' W 093°46'1 2.4
2018-Apr-21 07:30N 30°01' W 093°45'2 4.8
2018-Apr-21 07:00N 30°03' W 093°44'2 4.4
2018-Apr-21 06:30N 30°04' W 093°41'2 4.1
2018-Apr-21 05:59N 30°04' W 093°39'4 3.8
2018-Apr-21 04:51N 30°04' W 093°34'2 3.8
2018-Apr-21 04:19N 30°04' W 093°31'1 4.1
2018-Apr-21 04:00N 30°04' W 093°30'2 3.8
2018-Apr-21 03:30N 30°04' W 093°28'2 3.5
2018-Apr-21 03:00N 30°04' W 093°26'1 2.3
2018-Apr-21 02:30N 30°04' W 093°24'2 3.8
2018-Apr-21 02:00N 30°04' W 093°22'2 4.1
2018-Apr-21 01:30N 30°05' W 093°20'2 3.9
2018-Apr-21 01:01N 30°06' W 093°18'1 2.5
2018-Apr-21 00:30N 30°05' W 093°17'1 2.1
2018-Apr-21 00:00N 30°04' W 093°16'0 0.8
2018-Apr-20 23:30N 30°04' W 093°16'1 1.4
2018-Apr-20 23:00N 30°03' W 093°16'1 1.2
2018-Apr-20 22:30N 30°03' W 093°16'0 0.2
2018-Apr-20 22:00N 30°03' W 093°16'0 0.3
2018-Apr-20 21:31N 30°02' W 093°16'0 0.1
2018-Apr-20 21:00N 30°02' W 093°16'0 0.1
2018-Apr-20 20:31N 30°03' W 093°16'0 0.1
2018-Apr-20 20:00N 30°03' W 093°16'1 2.3
2018-Apr-20 19:30N 30°02' W 093°15'2 3.9
2018-Apr-20 19:00N 30°00' W 093°13'1 2.2
2018-Apr-20 18:31N 29°59' W 093°13'1 2.6
2018-Apr-20 18:01N 29°58' W 093°12'2 3.8
2018-Apr-20 17:29N 29°57' W 093°10'51 5.7
2018-Apr-20 08:29N 29°47' W 092°12'0 0.0
2018-Apr-20 03:59N 29°47' W 092°12'2 4.1
2018-Apr-20 03:30N 29°47' W 092°10'2 4.8
2018-Apr-20 03:00N 29°47' W 092°07'2 4.8
2018-Apr-20 02:30N 29°48' W 092°05'2 4.6
2018-Apr-20 02:01N 29°49' W 092°02'66 2.3
2018-Apr-18 21:34N 29°32' W 090°49'0 4.2
2018-Apr-18 21:30N 29°32' W 090°48'2 4.1
2018-Apr-18 21:00N 29°32' W 090°46'2 4.0
2018-Apr-18 20:30N 29°34' W 090°45'2 3.3
2018-Apr-18 20:00N 29°35' W 090°43'2 3.5
2018-Apr-18 19:30N 29°36' W 090°43'2 3.1
2018-Apr-18 19:00N 29°36' W 090°41'1 2.3
2018-Apr-18 18:30N 29°36' W 090°39'2 4.0
2018-Apr-18 18:00N 29°35' W 090°38'2 3.6
2018-Apr-18 17:30N 29°35' W 090°35'2 4.0
2018-Apr-18 17:00N 29°34' W 090°33'1 0.0
2018-Apr-17 18:35N 29°34' W 090°34'1 7.4
2018-Apr-17 18:29N 29°35' W 090°35'3 6.8
2018-Apr-17 18:00N 29°36' W 090°39'3 6.3
2018-Apr-17 17:30N 29°37' W 090°42'3 5.9
2018-Apr-17 17:00N 29°34' W 090°43'3 5.4
2018-Apr-17 16:30N 29°32' W 090°46'4 8.1
2018-Apr-17 16:00N 29°32' W 090°50'121 3.8
2018-Apr-16 07:52N 29°56' W 093°07'2 6.0
2018-Apr-16 07:29N 29°56' W 093°10'3 6.3
2018-Apr-16 07:00N 29°59' W 093°12'3 5.0
2018-Apr-16 06:30N 30°01' W 093°14'2 4.2
2018-Apr-16 06:00N 30°02' W 093°15'2 4.0
2018-Apr-16 05:30N 30°04' W 093°16'2 3.7
2018-Apr-16 05:00N 30°05' W 093°18'1 1.6
2018-Apr-16 04:30N 30°06' W 093°18'0 0.1
2018-Apr-16 04:01N 30°06' W 093°18'0 0.0
2018-Apr-16 03:30N 30°06' W 093°18'0 0.0
2018-Apr-16 03:00N 30°06' W 093°18'0 0.0
2018-Apr-16 02:30N 30°06' W 093°18'0 0.0
2018-Apr-16 02:01N 30°06' W 093°18'0 0.0
2018-Apr-16 01:31N 30°06' W 093°18'0 0.0
2018-Apr-16 01:00N 30°06' W 093°18'0 0.0
2018-Apr-16 00:30N 30°06' W 093°18'0 0.1
2018-Apr-16 00:00N 30°06' W 093°18'0 0.1
2018-Apr-15 23:29N 30°06' W 093°18'0 0.0
2018-Apr-15 23:00N 30°06' W 093°18'0 0.0
2018-Apr-15 22:30N 30°06' W 093°18'0 0.0
2018-Apr-15 22:00N 30°06' W 093°18'0 0.0
2018-Apr-15 21:30N 30°06' W 093°18'0 0.0
2018-Apr-15 21:00N 30°06' W 093°18'0 0.1
2018-Apr-15 20:30N 30°06' W 093°18'0 0.0
2018-Apr-15 20:00N 30°06' W 093°18'0 0.0
2018-Apr-15 19:30N 30°06' W 093°18'0 0.0
2018-Apr-15 19:00N 30°06' W 093°18'0 0.0
2018-Apr-15 18:30N 30°06' W 093°18'0 0.0
2018-Apr-15 18:01N 30°06' W 093°18'0 0.9
2018-Apr-15 17:30N 30°06' W 093°19'3 6.1
2018-Apr-15 17:00N 30°04' W 093°21'0 0.8
2018-Apr-15 16:31N 30°04' W 093°22'3 6.5
2018-Apr-15 15:59N 30°04' W 093°25'4 7.9
2018-Apr-15 15:30N 30°04' W 093°30'13 6.8
2018-Apr-15 13:38N 30°02' W 093°44'1 5.4
2018-Apr-15 13:30N 30°01' W 093°45'3 5.8
2018-Apr-15 13:00N 29°59' W 093°47'3 6.5
2018-Apr-15 12:30N 29°58' W 093°51'1 2.7
2018-Apr-15 12:00N 29°57' W 093°52'1 1.1
2018-Apr-15 11:31N 29°58' W 093°52'0 0.0
2018-Apr-15 11:00N 29°58' W 093°52'0 0.0
2018-Apr-15 10:30N 29°58' W 093°52'0 0.0
2018-Apr-15 10:00N 29°58' W 093°52'0 0.0
2018-Apr-15 09:30N 29°58' W 093°52'0 0.0
2018-Apr-15 09:01N 29°58' W 093°52'0 0.0
2018-Apr-15 08:30N 29°58' W 093°52'0 0.0
2018-Apr-15 08:00N 29°58' W 093°52'0 0.0
2018-Apr-15 07:31N 29°58' W 093°52'0 0.0
2018-Apr-15 07:00N 29°58' W 093°52'0 0.0
2018-Apr-15 06:30N 29°58' W 093°52'0 0.0
2018-Apr-15 06:00N 29°58' W 093°52'0 0.0
2018-Apr-15 05:30N 29°58' W 093°52'0 0.0
2018-Apr-15 05:00N 29°58' W 093°52'0 0.0
2018-Apr-15 04:30N 29°58' W 093°52'0 0.0
2018-Apr-15 04:00N 29°58' W 093°52'0 0.0
2018-Apr-15 03:31N 29°58' W 093°52'0 0.0
2018-Apr-15 03:01N 29°58' W 093°52'0 0.0
2018-Apr-15 02:30N 29°58' W 093°52'0 0.0
2018-Apr-15 02:00N 29°58' W 093°52'0 0.0
2018-Apr-15 01:31N 29°58' W 093°52'0 0.0
2018-Apr-15 01:00N 29°58' W 093°52'0 0.0
2018-Apr-15 00:30N 29°58' W 093°52'0 0.0
2018-Apr-15 00:00N 29°58' W 093°52'0 0.1
2018-Apr-14 23:30N 29°58' W 093°52'0 0.0
2018-Apr-14 23:00N 29°58' W 093°52'0 0.1
2018-Apr-14 22:30N 29°58' W 093°52'0 0.0
2018-Apr-14 22:00N 29°58' W 093°52'0 0.1
2018-Apr-14 21:31N 29°58' W 093°52'1 1.3
2018-Apr-14 20:57N 29°57' W 093°52'2 5.2
2018-Apr-14 20:30N 29°55' W 093°53'3 5.6
2018-Apr-14 20:00N 29°53' W 093°55'3 5.1
2018-Apr-14 19:30N 29°51' W 093°57'1 2.4
2018-Apr-14 19:00N 29°50' W 093°58'0 0.0
2018-Apr-14 18:30N 29°50' W 093°58'0 0.0
2018-Apr-14 18:00N 29°50' W 093°58'0 0.0
2018-Apr-14 17:29N 29°50' W 093°58'0 0.0
2018-Apr-14 17:00N 29°50' W 093°58'0 0.6
2018-Apr-14 16:30N 29°50' W 093°57'4 8.8
2018-Apr-14 16:00N 29°53' W 093°55'4 8.9
2018-Apr-14 15:30N 29°57' W 093°52'0 1.0
2018-Apr-14 15:00N 29°57' W 093°52'0 0.0
2018-Apr-14 14:30N 29°57' W 093°52'0 0.0
2018-Apr-14 14:00N 29°57' W 093°52'0 0.0
2018-Apr-14 13:30N 29°57' W 093°52'0 0.2
2018-Apr-14 12:56N 29°58' W 093°52'0 0.1
2018-Apr-14 12:30N 29°58' W 093°52'1 1.4
2018-Apr-14 12:00N 29°57' W 093°52'2 4.1
2018-Apr-14 11:30N 29°58' W 093°50'3 6.4
2018-Apr-14 11:01N 29°60' W 093°47'3 6.2
2018-Apr-14 10:30N 30°02' W 093°44'3 5.0
2018-Apr-14 09:57N 30°03' W 093°42'2 3.6
2018-Apr-14 09:31N 30°04' W 093°40'7 3.5
2018-Apr-14 07:34N 30°04' W 093°32'0 4.0
2018-Apr-14 07:28N 30°04' W 093°32'2 3.9
2018-Apr-14 07:00N 30°04' W 093°30'2 3.9
2018-Apr-14 06:30N 30°04' W 093°27'2 3.8
2018-Apr-14 06:00N 30°04' W 093°25'2 3.8
2018-Apr-14 05:30N 30°04' W 093°23'2 3.0
2018-Apr-14 05:00N 30°04' W 093°21'2 3.5
2018-Apr-14 04:30N 30°05' W 093°20'2 3.5
2018-Apr-14 04:00N 30°06' W 093°18'1 2.4
2018-Apr-14 03:30N 30°05' W 093°17'0 0.6
2018-Apr-14 03:00N 30°05' W 093°17'0 0.3
2018-Apr-14 02:30N 30°05' W 093°17'0 0.4
2018-Apr-14 02:00N 30°04' W 093°16'1 1.3
2018-Apr-14 01:30N 30°04' W 093°16'1 2.5
2018-Apr-14 01:01N 30°03' W 093°16'2 3.7
2018-Apr-14 00:30N 30°02' W 093°14'2 3.7
2018-Apr-14 00:00N 29°60' W 093°13'1 2.2
2018-Apr-13 23:30N 29°59' W 093°12'4 4.5
2018-Apr-13 22:41N 29°56' W 093°10'  
Track history (hours):
 
Tides and Currents Weather Stations Pressure Air Temp Water Temp Dewpoint Dewpoint Depression Visibility Wind Speed Wind Dir Waves Ship Positions

Roy Baker

Owner: Kirby Inland Marine LP, Houston, TX. More information available from US FCC via Universal Licensing System and Coast Guard Vessel Documentation Center.

Last reported at 2018-Apr-23 19:15 UTC. Time now 2018-Apr-24 08:44 UTC.
Position N 29°56' W 093°09'.

Length 11 m; draft 2.1 m.

Type: Towing. MMSI: 366996540.

Date/timePositionNaut miles runAvg speedWind from/ knotsBaromVisibWave heightAir tempDewpointWater temp
2018-Apr-23 19:15N 29°56' W 093°09'1 5.9
2018-Apr-23 19:00N 29°57' W 093°10'2 3.4
2018-Apr-23 18:30N 29°58' W 093°12'3 6.2
2018-Apr-23 18:00N 30°01' W 093°14'3 5.6
2018-Apr-23 17:30N 30°03' W 093°16'3 5.2
2018-Apr-23 16:58N 30°05' W 093°18'1 1.8
2018-Apr-23 16:30N 30°06' W 093°18'0 0.0
2018-Apr-23 16:01N 30°06' W 093°18'3 5.5
2018-Apr-23 15:30N 30°04' W 093°21'3 5.5
2018-Apr-23 15:01N 30°04' W 093°24'4 7.3
2018-Apr-23 14:30N 30°04' W 093°28'4 7.4
2018-Apr-23 13:59N 30°04' W 093°32'4 7.3
2018-Apr-23 13:30N 30°04' W 093°37'3 6.9
2018-Apr-23 13:00N 30°04' W 093°40'3 6.2
2018-Apr-23 12:30N 30°03' W 093°44'3 5.1
2018-Apr-23 12:00N 30°01' W 093°46'3 6.0
2018-Apr-23 11:30N 29°59' W 093°49'3 6.1
2018-Apr-23 11:00N 29°57' W 093°51'0 0.8
2018-Apr-23 10:30N 29°58' W 093°52'0 0.0
2018-Apr-23 10:00N 29°58' W 093°52'0 0.0
2018-Apr-23 09:30N 29°58' W 093°52'0 0.0
2018-Apr-23 09:00N 29°58' W 093°52'0 0.0
2018-Apr-23 08:30N 29°58' W 093°52'0 0.0
2018-Apr-23 08:00N 29°58' W 093°52'0 0.0
2018-Apr-23 07:30N 29°58' W 093°52'0 0.0
2018-Apr-23 07:00N 29°58' W 093°52'0 0.0
2018-Apr-23 06:30N 29°58' W 093°52'0 0.0
2018-Apr-23 06:00N 29°58' W 093°52'0 0.0
2018-Apr-23 05:30N 29°58' W 093°52'0 0.0
2018-Apr-23 05:00N 29°58' W 093°52'0 0.0
2018-Apr-23 04:30N 29°58' W 093°52'0 0.0
2018-Apr-23 04:00N 29°58' W 093°52'0 0.0
2018-Apr-23 03:31N 29°58' W 093°52'0 0.0
2018-Apr-23 03:00N 29°58' W 093°52'0 0.0
2018-Apr-23 02:30N 29°58' W 093°52'0 0.0
2018-Apr-23 02:00N 29°58' W 093°52'0 0.0
2018-Apr-23 01:29N 29°58' W 093°52'0 0.0
2018-Apr-23 01:00N 29°58' W 093°52'0 0.0
2018-Apr-23 00:30N 29°58' W 093°52'0 0.0
2018-Apr-23 00:00N 29°58' W 093°52'0 0.0
2018-Apr-22 23:28N 29°58' W 093°52'0 0.0
2018-Apr-22 23:00N 29°58' W 093°52'0 0.0
2018-Apr-22 22:30N 29°58' W 093°52'0 0.0
2018-Apr-22 22:00N 29°58' W 093°52'0 0.0
2018-Apr-22 21:30N 29°58' W 093°52'0 0.0
2018-Apr-22 21:00N 29°58' W 093°52'0 0.0
2018-Apr-22 20:30N 29°58' W 093°52'0 0.0
2018-Apr-22 19:58N 29°58' W 093°52'0 0.0
2018-Apr-22 19:30N 29°58' W 093°52'0 0.2
2018-Apr-22 19:00N 29°58' W 093°52'0 0.1
2018-Apr-22 18:30N 29°58' W 093°52'0 0.0
2018-Apr-22 18:00N 29°58' W 093°52'0 0.0
2018-Apr-22 17:30N 29°58' W 093°52'0 0.0
2018-Apr-22 17:00N 29°58' W 093°52'0 0.0
2018-Apr-22 16:30N 29°58' W 093°52'0 0.0
2018-Apr-22 16:00N 29°58' W 093°52'0 0.0
2018-Apr-22 15:30N 29°58' W 093°52'0 0.2
2018-Apr-22 15:00N 29°58' W 093°52'0 0.0
2018-Apr-22 14:30N 29°58' W 093°52'0 0.0
2018-Apr-22 14:00N 29°58' W 093°52'0 0.0
2018-Apr-22 13:31N 29°58' W 093°52'0 0.0
2018-Apr-22 13:01N 29°58' W 093°52'0 0.1
2018-Apr-22 12:30N 29°58' W 093°52'0 0.0
2018-Apr-22 11:59N 29°58' W 093°52'0 0.0
2018-Apr-22 11:30N 29°58' W 093°52'0 0.0
2018-Apr-22 11:00N 29°58' W 093°52'0 0.0
2018-Apr-22 10:30N 29°58' W 093°52'0 0.0
2018-Apr-22 10:01N 29°58' W 093°52'0 0.0
2018-Apr-22 09:30N 29°58' W 093°52'0 0.0
2018-Apr-22 09:00N 29°58' W 093°52'0 0.0
2018-Apr-22 08:30N 29°58' W 093°52'0 0.0
2018-Apr-22 08:00N 29°58' W 093°52'0 0.0
2018-Apr-22 07:30N 29°58' W 093°52'0 0.0
2018-Apr-22 07:00N 29°58' W 093°52'0 0.0
2018-Apr-22 06:30N 29°58' W 093°52'0 0.1
2018-Apr-22 06:00N 29°58' W 093°52'0 0.0
2018-Apr-22 05:30N 29°58' W 093°52'0 0.0
2018-Apr-22 05:00N 29°58' W 093°52'0 0.0
2018-Apr-22 04:30N 29°58' W 093°52'0 0.0
2018-Apr-22 04:00N 29°58' W 093°52'0 0.0
2018-Apr-22 03:30N 29°58' W 093°52'0 0.0
2018-Apr-22 03:00N 29°58' W 093°52'0 0.0
2018-Apr-22 02:30N 29°58' W 093°52'0 0.0
2018-Apr-22 02:00N 29°58' W 093°52'0 0.0
2018-Apr-22 01:30N 29°58' W 093°52'0 0.0
2018-Apr-22 01:00N 29°58' W 093°52'0 0.0
2018-Apr-22 00:30N 29°58' W 093°52'1 2.8
2018-Apr-22 00:00N 29°56' W 093°52'4 7.1
2018-Apr-21 23:30N 29°54' W 093°55'4 7.2
2018-Apr-21 23:00N 29°51' W 093°57'1 2.1
2018-Apr-21 22:30N 29°50' W 093°58'0 0.0
2018-Apr-21 22:00N 29°50' W 093°58'0 0.0
2018-Apr-21 21:30N 29°50' W 093°58'0 0.0
2018-Apr-21 21:00N 29°50' W 093°58'0 0.4
2018-Apr-21 20:31N 29°50' W 093°58'2 4.3
2018-Apr-21 20:00N 29°52' W 093°56'2 4.3
2018-Apr-21 19:30N 29°53' W 093°55'3 6.3
2018-Apr-21 19:00N 29°56' W 093°53'2 4.2
2018-Apr-21 18:30N 29°58' W 093°52'0 0.0
2018-Apr-21 18:00N 29°58' W 093°52'0 0.0
2018-Apr-21 17:30N 29°58' W 093°52'0 0.0
2018-Apr-21 17:00N 29°58' W 093°52'0 0.0
2018-Apr-21 16:30N 29°58' W 093°52'0 0.0
2018-Apr-21 16:00N 29°58' W 093°52'0 0.0
2018-Apr-21 15:30N 29°58' W 093°52'0 0.0
2018-Apr-21 15:00N 29°58' W 093°52'0 0.0
2018-Apr-21 14:30N 29°58' W 093°52'0 0.0
2018-Apr-21 14:00N 29°58' W 093°52'0 0.0
2018-Apr-21 13:30N 29°58' W 093°52'0 0.0
2018-Apr-21 13:00N 29°58' W 093°52'0 0.0
2018-Apr-21 12:29N 29°58' W 093°52'0 0.0
2018-Apr-21 12:00N 29°58' W 093°52'0 0.0
2018-Apr-21 11:30N 29°58' W 093°52'0 0.0
2018-Apr-21 11:00N 29°58' W 093°52'0 0.3
2018-Apr-21 10:30N 29°58' W 093°52'0 0.1
2018-Apr-21 10:00N 29°58' W 093°52'1 1.7
2018-Apr-21 09:30N 29°57' W 093°52'2 3.4
2018-Apr-21 09:00N 29°58' W 093°51'2 4.6
2018-Apr-21 08:31N 29°59' W 093°48'2 4.6
2018-Apr-21 08:00N 30°00' W 093°46'1 2.4
2018-Apr-21 07:30N 30°01' W 093°45'2 4.8
2018-Apr-21 07:00N 30°03' W 093°44'2 4.4
2018-Apr-21 06:30N 30°04' W 093°41'2 4.1
2018-Apr-21 05:59N 30°04' W 093°39'4 3.8
2018-Apr-21 04:51N 30°04' W 093°34'2 3.8
2018-Apr-21 04:19N 30°04' W 093°31'1 4.1
2018-Apr-21 04:00N 30°04' W 093°30'2 3.8
2018-Apr-21 03:30N 30°04' W 093°28'2 3.5
2018-Apr-21 03:00N 30°04' W 093°26'1 2.3
2018-Apr-21 02:30N 30°04' W 093°24'2 3.8
2018-Apr-21 02:00N 30°04' W 093°22'2 4.1
2018-Apr-21 01:30N 30°05' W 093°20'2 3.9
2018-Apr-21 01:01N 30°06' W 093°18'1 2.5
2018-Apr-21 00:30N 30°05' W 093°17'1 2.1
2018-Apr-21 00:00N 30°04' W 093°16'0 0.8
2018-Apr-20 23:30N 30°04' W 093°16'1 1.4
2018-Apr-20 23:00N 30°03' W 093°16'1 1.2
2018-Apr-20 22:30N 30°03' W 093°16'0 0.2
2018-Apr-20 22:00N 30°03' W 093°16'0 0.3
2018-Apr-20 21:31N 30°02' W 093°16'0 0.1
2018-Apr-20 21:00N 30°02' W 093°16'0 0.1
2018-Apr-20 20:31N 30°03' W 093°16'0 0.1
2018-Apr-20 20:00N 30°03' W 093°16'1 2.3
2018-Apr-20 19:30N 30°02' W 093°15'2 3.9
2018-Apr-20 19:00N 30°00' W 093°13'1 2.2
2018-Apr-20 18:31N 29°59' W 093°13'1 2.6
2018-Apr-20 18:01N 29°58' W 093°12'2 3.8
2018-Apr-20 17:29N 29°57' W 093°10'51 5.7
2018-Apr-20 08:29N 29°47' W 092°12'0 0.0
2018-Apr-20 03:59N 29°47' W 092°12'2 4.1
2018-Apr-20 03:30N 29°47' W 092°10'2 4.8
2018-Apr-20 03:00N 29°47' W 092°07'2 4.8
2018-Apr-20 02:30N 29°48' W 092°05'2 4.6
2018-Apr-20 02:01N 29°49' W 092°02'66 2.3
2018-Apr-18 21:34N 29°32' W 090°49'0 4.2
2018-Apr-18 21:30N 29°32' W 090°48'2 4.1
2018-Apr-18 21:00N 29°32' W 090°46'2 4.0
2018-Apr-18 20:30N 29°34' W 090°45'2 3.3
2018-Apr-18 20:00N 29°35' W 090°43'2 3.5
2018-Apr-18 19:30N 29°36' W 090°43'2 3.1
2018-Apr-18 19:00N 29°36' W 090°41'1 2.3
2018-Apr-18 18:30N 29°36' W 090°39'2 4.0
2018-Apr-18 18:00N 29°35' W 090°38'2 3.6
2018-Apr-18 17:30N 29°35' W 090°35'2 4.0
2018-Apr-18 17:00N 29°34' W 090°33'1 0.0
2018-Apr-17 18:35N 29°34' W 090°34'1 7.4
2018-Apr-17 18:29N 29°35' W 090°35'3 6.8
2018-Apr-17 18:00N 29°36' W 090°39'3 6.3
2018-Apr-17 17:30N 29°37' W 090°42'3 5.9
2018-Apr-17 17:00N 29°34' W 090°43'3 5.4
2018-Apr-17 16:30N 29°32' W 090°46'4 8.1
2018-Apr-17 16:00N 29°32' W 090°50'121 3.8
2018-Apr-16 07:52N 29°56' W 093°07'2 6.0
2018-Apr-16 07:29N 29°56' W 093°10'3 6.3
2018-Apr-16 07:00N 29°59' W 093°12'3 5.0
2018-Apr-16 06:30N 30°01' W 093°14'2 4.2
2018-Apr-16 06:00N 30°02' W 093°15'2 4.0
2018-Apr-16 05:30N 30°04' W 093°16'2 3.7
2018-Apr-16 05:00N 30°05' W 093°18'1 1.6
2018-Apr-16 04:30N 30°06' W 093°18'0 0.1
2018-Apr-16 04:01N 30°06' W 093°18'0 0.0
2018-Apr-16 03:30N 30°06' W 093°18'0 0.0
2018-Apr-16 03:00N 30°06' W 093°18'0 0.0
2018-Apr-16 02:30N 30°06' W 093°18'0 0.0
2018-Apr-16 02:01N 30°06' W 093°18'0 0.0
2018-Apr-16 01:31N 30°06' W 093°18'0 0.0
2018-Apr-16 01:00N 30°06' W 093°18'0 0.0
2018-Apr-16 00:30N 30°06' W 093°18'0 0.1
2018-Apr-16 00:00N 30°06' W 093°18'0 0.1
2018-Apr-15 23:29N 30°06' W 093°18'0 0.0
2018-Apr-15 23:00N 30°06' W 093°18'0 0.0
2018-Apr-15 22:30N 30°06' W 093°18'0 0.0
2018-Apr-15 22:00N 30°06' W 093°18'0 0.0
2018-Apr-15 21:30N 30°06' W 093°18'0 0.0
2018-Apr-15 21:00N 30°06' W 093°18'0 0.1
2018-Apr-15 20:30N 30°06' W 093°18'0 0.0
2018-Apr-15 20:00N 30°06' W 093°18'0 0.0
2018-Apr-15 19:30N 30°06' W 093°18'0 0.0
2018-Apr-15 19:00N 30°06' W 093°18'0 0.0
2018-Apr-15 18:30N 30°06' W 093°18'0 0.0
2018-Apr-15 18:01N 30°06' W 093°18'0 0.9
2018-Apr-15 17:30N 30°06' W 093°19'3 6.1
2018-Apr-15 17:00N 30°04' W 093°21'0 0.8
2018-Apr-15 16:31N 30°04' W 093°22'3 6.5
2018-Apr-15 15:59N 30°04' W 093°25'4 7.9
2018-Apr-15 15:30N 30°04' W 093°30'13 6.8
2018-Apr-15 13:38N 30°02' W 093°44'1 5.4
2018-Apr-15 13:30N 30°01' W 093°45'3 5.8
2018-Apr-15 13:00N 29°59' W 093°47'3 6.5
2018-Apr-15 12:30N 29°58' W 093°51'1 2.7
2018-Apr-15 12:00N 29°57' W 093°52'1 1.1
2018-Apr-15 11:31N 29°58' W 093°52'0 0.0
2018-Apr-15 11:00N 29°58' W 093°52'0 0.0
2018-Apr-15 10:30N 29°58' W 093°52'0 0.0
2018-Apr-15 10:00N 29°58' W 093°52'0 0.0
2018-Apr-15 09:30N 29°58' W 093°52'0 0.0
2018-Apr-15 09:01N 29°58' W 093°52'0 0.0
2018-Apr-15 08:30N 29°58' W 093°52'0 0.0
2018-Apr-15 08:00N 29°58' W 093°52'0 0.0
2018-Apr-15 07:31N 29°58' W 093°52'0 0.0
2018-Apr-15 07:00N 29°58' W 093°52'0 0.0
2018-Apr-15 06:30N 29°58' W 093°52'0 0.0
2018-Apr-15 06:00N 29°58' W 093°52'0 0.0
2018-Apr-15 05:30N 29°58' W 093°52'0 0.0
2018-Apr-15 05:00N 29°58' W 093°52'0 0.0
2018-Apr-15 04:30N 29°58' W 093°52'0 0.0
2018-Apr-15 04:00N 29°58' W 093°52'0 0.0
2018-Apr-15 03:31N 29°58' W 093°52'0 0.0
2018-Apr-15 03:01N 29°58' W 093°52'0 0.0
2018-Apr-15 02:30N 29°58' W 093°52'0 0.0
2018-Apr-15 02:00N 29°58' W 093°52'0 0.0
2018-Apr-15 01:31N 29°58' W 093°52'0 0.0
2018-Apr-15 01:00N 29°58' W 093°52'0 0.0
2018-Apr-15 00:30N 29°58' W 093°52'0 0.0
2018-Apr-15 00:00N 29°58' W 093°52'0 0.1
2018-Apr-14 23:30N 29°58' W 093°52'0 0.0
2018-Apr-14 23:00N 29°58' W 093°52'0 0.1
2018-Apr-14 22:30N 29°58' W 093°52'0 0.0
2018-Apr-14 22:00N 29°58' W 093°52'0 0.1
2018-Apr-14 21:31N 29°58' W 093°52'1 1.3
2018-Apr-14 20:57N 29°57' W 093°52'2 5.2
2018-Apr-14 20:30N 29°55' W 093°53'3 5.6
2018-Apr-14 20:00N 29°53' W 093°55'3 5.1
2018-Apr-14 19:30N 29°51' W 093°57'1 2.4
2018-Apr-14 19:00N 29°50' W 093°58'0 0.0
2018-Apr-14 18:30N 29°50' W 093°58'0 0.0
2018-Apr-14 18:00N 29°50' W 093°58'0 0.0
2018-Apr-14 17:29N 29°50' W 093°58'0 0.0
2018-Apr-14 17:00N 29°50' W 093°58'0 0.6
2018-Apr-14 16:30N 29°50' W 093°57'4 8.8
2018-Apr-14 16:00N 29°53' W 093°55'4 8.9
2018-Apr-14 15:30N 29°57' W 093°52'0 1.0
2018-Apr-14 15:00N 29°57' W 093°52'0 0.0
2018-Apr-14 14:30N 29°57' W 093°52'0 0.0
2018-Apr-14 14:00N 29°57' W 093°52'0 0.0
2018-Apr-14 13:30N 29°57' W 093°52'0 0.2
2018-Apr-14 12:56N 29°58' W 093°52'0 0.1
2018-Apr-14 12:30N 29°58' W 093°52'1 1.4
2018-Apr-14 12:00N 29°57' W 093°52'2 4.1
2018-Apr-14 11:30N 29°58' W 093°50'3 6.4
2018-Apr-14 11:01N 29°60' W 093°47'3 6.2
2018-Apr-14 10:30N 30°02' W 093°44'3 5.0
2018-Apr-14 09:57N 30°03' W 093°42'2 3.6
2018-Apr-14 09:31N 30°04' W 093°40'7 3.5
2018-Apr-14 07:34N 30°04' W 093°32'0 4.0
2018-Apr-14 07:28N 30°04' W 093°32'2 3.9
2018-Apr-14 07:00N 30°04' W 093°30'2 3.9
2018-Apr-14 06:30N 30°04' W 093°27'2 3.8
2018-Apr-14 06:00N 30°04' W 093°25'2 3.8
2018-Apr-14 05:30N 30°04' W 093°23'2 3.0
2018-Apr-14 05:00N 30°04' W 093°21'2 3.5
2018-Apr-14 04:30N 30°05' W 093°20'2 3.5
2018-Apr-14 04:00N 30°06' W 093°18'1 2.4
2018-Apr-14 03:30N 30°05' W 093°17'0 0.6
2018-Apr-14 03:00N 30°05' W 093°17'0 0.3
2018-Apr-14 02:30N 30°05' W 093°17'0 0.4
2018-Apr-14 02:00N 30°04' W 093°16'1 1.3
2018-Apr-14 01:30N 30°04' W 093°16'1 2.5
2018-Apr-14 01:01N 30°03' W 093°16'2 3.7
2018-Apr-14 00:30N 30°02' W 093°14'2 3.7
2018-Apr-14 00:00N 29°60' W 093°13'1 2.2
2018-Apr-13 23:30N 29°59' W 093°12'4 4.5
2018-Apr-13 22:41N 29°56' W 093°10'  

Dump ship's entire track history